sensor_id;sensor_type;location;lat;lon;timestamp;temperature;humidity
20337;DHT22;10326;53.660;10.200;2022-12-07T00:01:48;6.50;83.50
20337;DHT22;10326;53.660;10.200;2022-12-07T00:04:17;6.50;83.60
20337;DHT22;10326;53.660;10.200;2022-12-07T00:06:46;6.50;83.50
20337;DHT22;10326;53.660;10.200;2022-12-07T00:09:18;6.50;83.50
20337;DHT22;10326;53.660;10.200;2022-12-07T00:11:49;6.50;83.70
20337;DHT22;10326;53.660;10.200;2022-12-07T00:14:19;6.50;83.70
20337;DHT22;10326;53.660;10.200;2022-12-07T00:16:49;6.50;83.80
20337;DHT22;10326;53.660;10.200;2022-12-07T00:19:17;6.50;83.80
20337;DHT22;10326;53.660;10.200;2022-12-07T00:21:44;6.50;83.90
20337;DHT22;10326;53.660;10.200;2022-12-07T00:24:12;6.50;84.00
20337;DHT22;10326;53.660;10.200;2022-12-07T00:26:41;6.60;84.20
20337;DHT22;10326;53.660;10.200;2022-12-07T00:29:13;6.60;84.20
20337;DHT22;10326;53.660;10.200;2022-12-07T00:31:44;6.60;84.20
20337;DHT22;10326;53.660;10.200;2022-12-07T00:34:13;6.60;84.20
20337;DHT22;10326;53.660;10.200;2022-12-07T00:36:41;6.60;84.20
20337;DHT22;10326;53.660;10.200;2022-12-07T00:39:08;6.60;84.20
20337;DHT22;10326;53.660;10.200;2022-12-07T00:41:35;6.70;84.30
20337;DHT22;10326;53.660;10.200;2022-12-07T00:44:03;6.70;84.20
20337;DHT22;10326;53.660;10.200;2022-12-07T00:46:30;6.70;84.30
20337;DHT22;10326;53.660;10.200;2022-12-07T00:48:59;6.70;84.50
20337;DHT22;10326;53.660;10.200;2022-12-07T00:51:26;6.70;84.60
20337;DHT22;10326;53.660;10.200;2022-12-07T00:53:54;6.70;84.50
20337;DHT22;10326;53.660;10.200;2022-12-07T00:56:22;6.70;84.60
20337;DHT22;10326;53.660;10.200;2022-12-07T00:58:51;6.70;84.70
20337;DHT22;10326;53.660;10.200;2022-12-07T01:01:19;6.70;84.70
20337;DHT22;10326;53.660;10.200;2022-12-07T01:03:46;6.70;84.70
20337;DHT22;10326;53.660;10.200;2022-12-07T01:06:16;6.70;84.80
20337;DHT22;10326;53.660;10.200;2022-12-07T01:08:44;6.70;84.90
20337;DHT22;10326;53.660;10.200;2022-12-07T01:11:14;6.70;84.90
20337;DHT22;10326;53.660;10.200;2022-12-07T01:13:42;6.70;84.90
20337;DHT22;10326;53.660;10.200;2022-12-07T01:16:11;6.70;84.90
20337;DHT22;10326;53.660;10.200;2022-12-07T01:18:40;6.70;84.90
20337;DHT22;10326;53.660;10.200;2022-12-07T01:21:11;6.80;85.50
20337;DHT22;10326;53.660;10.200;2022-12-07T01:23:42;6.80;85.00
20337;DHT22;10326;53.660;10.200;2022-12-07T01:26:12;6.80;84.90
20337;DHT22;10326;53.660;10.200;2022-12-07T01:28:40;6.80;84.90
20337;DHT22;10326;53.660;10.200;2022-12-07T01:31:08;6.80;84.90
20337;DHT22;10326;53.660;10.200;2022-12-07T01:33:38;6.80;85.00
20337;DHT22;10326;53.660;10.200;2022-12-07T01:36:07;6.80;84.90
20337;DHT22;10326;53.660;10.200;2022-12-07T01:38:35;6.80;85.00
20337;DHT22;10326;53.660;10.200;2022-12-07T01:41:04;6.80;85.00
20337;DHT22;10326;53.660;10.200;2022-12-07T01:43:33;6.80;85.10
20337;DHT22;10326;53.660;10.200;2022-12-07T01:46:01;6.80;85.20
20337;DHT22;10326;53.660;10.200;2022-12-07T01:48:32;6.80;85.10
20337;DHT22;10326;53.660;10.200;2022-12-07T01:51:05;6.80;85.20
20337;DHT22;10326;53.660;10.200;2022-12-07T01:53:39;6.80;85.20
20337;DHT22;10326;53.660;10.200;2022-12-07T01:56:17;6.80;85.10
20337;DHT22;10326;53.660;10.200;2022-12-07T01:58:46;6.80;85.10
20337;DHT22;10326;53.660;10.200;2022-12-07T02:01:13;6.70;85.00
20337;DHT22;10326;53.660;10.200;2022-12-07T02:03:42;6.70;85.00
20337;DHT22;10326;53.660;10.200;2022-12-07T02:06:17;6.70;85.00
20337;DHT22;10326;53.660;10.200;2022-12-07T02:08:46;6.70;85.10
20337;DHT22;10326;53.660;10.200;2022-12-07T02:11:15;6.70;85.00
20337;DHT22;10326;53.660;10.200;2022-12-07T02:13:43;6.70;85.10
20337;DHT22;10326;53.660;10.200;2022-12-07T02:16:20;6.70;85.10
20337;DHT22;10326;53.660;10.200;2022-12-07T02:19:05;6.70;85.20
20337;DHT22;10326;53.660;10.200;2022-12-07T02:21:47;6.70;85.20
20337;DHT22;10326;53.660;10.200;2022-12-07T02:24:46;6.70;85.10
20337;DHT22;10326;53.660;10.200;2022-12-07T02:27:34;6.70;85.60
20337;DHT22;10326;53.660;10.200;2022-12-07T02:30:08;6.70;85.50
20337;DHT22;10326;53.660;10.200;2022-12-07T02:32:42;6.60;85.30
20337;DHT22;10326;53.660;10.200;2022-12-07T02:35:15;6.60;85.40
20337;DHT22;10326;53.660;10.200;2022-12-07T02:37:53;6.60;85.30
20337;DHT22;10326;53.660;10.200;2022-12-07T02:40:28;6.60;85.40
20337;DHT22;10326;53.660;10.200;2022-12-07T02:43:01;6.60;85.30
20337;DHT22;10326;53.660;10.200;2022-12-07T02:45:41;6.60;85.30
20337;DHT22;10326;53.660;10.200;2022-12-07T02:48:10;6.60;85.40
20337;DHT22;10326;53.660;10.200;2022-12-07T02:50:39;6.60;85.50
20337;DHT22;10326;53.660;10.200;2022-12-07T02:53:29;6.60;85.50
20337;DHT22;10326;53.660;10.200;2022-12-07T02:55:58;6.60;85.60
20337;DHT22;10326;53.660;10.200;2022-12-07T02:58:35;6.60;85.30
20337;DHT22;10326;53.660;10.200;2022-12-07T03:01:16;6.60;85.30
20337;DHT22;10326;53.660;10.200;2022-12-07T03:04:01;6.60;85.20
20337;DHT22;10326;53.660;10.200;2022-12-07T03:06:39;6.60;85.20
20337;DHT22;10326;53.660;10.200;2022-12-07T03:09:15;6.60;85.50
20337;DHT22;10326;53.660;10.200;2022-12-07T03:11:49;6.60;84.90
20337;DHT22;10326;53.660;10.200;2022-12-07T03:14:23;6.50;84.80
20337;DHT22;10326;53.660;10.200;2022-12-07T03:16:58;6.50;84.80
20337;DHT22;10326;53.660;10.200;2022-12-07T03:19:27;6.50;84.90
20337;DHT22;10326;53.660;10.200;2022-12-07T03:21:59;6.50;84.80
20337;DHT22;10326;53.660;10.200;2022-12-07T03:24:30;6.50;84.70
20337;DHT22;10326;53.660;10.200;2022-12-07T03:27:03;6.40;84.60
20337;DHT22;10326;53.660;10.200;2022-12-07T03:29:36;6.40;84.60
20337;DHT22;10326;53.660;10.200;2022-12-07T03:32:10;6.40;84.50
20337;DHT22;10326;53.660;10.200;2022-12-07T03:34:46;6.40;84.60
20337;DHT22;10326;53.660;10.200;2022-12-07T03:37:18;6.40;84.50
20337;DHT22;10326;53.660;10.200;2022-12-07T03:39:58;6.30;84.40
20337;DHT22;10326;53.660;10.200;2022-12-07T03:42:31;6.30;84.40
20337;DHT22;10326;53.660;10.200;2022-12-07T03:44:59;6.30;84.30
20337;DHT22;10326;53.660;10.200;2022-12-07T03:47:32;6.20;84.20
20337;DHT22;10326;53.660;10.200;2022-12-07T03:50:06;6.20;84.30
20337;DHT22;10326;53.660;10.200;2022-12-07T03:52:40;6.20;84.30
20337;DHT22;10326;53.660;10.200;2022-12-07T03:55:13;6.10;84.30
20337;DHT22;10326;53.660;10.200;2022-12-07T03:57:43;6.10;84.30
20337;DHT22;10326;53.660;10.200;2022-12-07T04:00:12;6.10;84.30
20337;DHT22;10326;53.660;10.200;2022-12-07T04:02:42;6.10;84.30
20337;DHT22;10326;53.660;10.200;2022-12-07T04:05:11;6.10;84.30
20337;DHT22;10326;53.660;10.200;2022-12-07T04:07:38;6.10;84.40
20337;DHT22;10326;53.660;10.200;2022-12-07T04:10:06;6.10;84.30
20337;DHT22;10326;53.660;10.200;2022-12-07T04:12:34;6.00;84.20
20337;DHT22;10326;53.660;10.200;2022-12-07T04:15:01;6.00;84.10
20337;DHT22;10326;53.660;10.200;2022-12-07T04:17:29;6.00;84.00
20337;DHT22;10326;53.660;10.200;2022-12-07T04:19:57;6.00;84.00
20337;DHT22;10326;53.660;10.200;2022-12-07T04:22:24;6.00;84.00
20337;DHT22;10326;53.660;10.200;2022-12-07T04:24:52;6.00;84.00
20337;DHT22;10326;53.660;10.200;2022-12-07T04:27:19;5.90;84.00
20337;DHT22;10326;53.660;10.200;2022-12-07T04:29:46;5.90;84.10
20337;DHT22;10326;53.660;10.200;2022-12-07T04:32:13;5.90;84.20
20337;DHT22;10326;53.660;10.200;2022-12-07T04:34:40;5.90;84.20
20337;DHT22;10326;53.660;10.200;2022-12-07T04:37:08;5.90;84.10
20337;DHT22;10326;53.660;10.200;2022-12-07T04:39:36;5.90;84.10
20337;DHT22;10326;53.660;10.200;2022-12-07T04:42:03;5.90;84.00
20337;DHT22;10326;53.660;10.200;2022-12-07T04:44:30;5.90;84.00
20337;DHT22;10326;53.660;10.200;2022-12-07T04:46:58;5.90;83.90
20337;DHT22;10326;53.660;10.200;2022-12-07T04:49:25;5.90;83.80
20337;DHT22;10326;53.660;10.200;2022-12-07T04:51:52;5.90;83.80
20337;DHT22;10326;53.660;10.200;2022-12-07T04:54:21;5.90;83.60
20337;DHT22;10326;53.660;10.200;2022-12-07T04:56:48;5.80;83.50
20337;DHT22;10326;53.660;10.200;2022-12-07T04:59:16;5.80;83.50
20337;DHT22;10326;53.660;10.200;2022-12-07T05:01:43;5.80;83.40
20337;DHT22;10326;53.660;10.200;2022-12-07T05:04:11;5.80;83.40
20337;DHT22;10326;53.660;10.200;2022-12-07T05:06:38;5.70;83.30
20337;DHT22;10326;53.660;10.200;2022-12-07T05:09:05;5.70;83.20
20337;DHT22;10326;53.660;10.200;2022-12-07T05:11:34;5.70;83.20
20337;DHT22;10326;53.660;10.200;2022-12-07T05:14:10;5.70;83.30
20337;DHT22;10326;53.660;10.200;2022-12-07T05:16:39;5.60;83.30
20337;DHT22;10326;53.660;10.200;2022-12-07T05:19:07;5.60;83.30
20337;DHT22;10326;53.660;10.200;2022-12-07T05:21:34;5.60;83.30
20337;DHT22;10326;53.660;10.200;2022-12-07T05:24:03;5.60;83.30
20337;DHT22;10326;53.660;10.200;2022-12-07T05:26:30;5.50;83.30
20337;DHT22;10326;53.660;10.200;2022-12-07T05:28:59;5.60;83.40
20337;DHT22;10326;53.660;10.200;2022-12-07T05:31:27;5.50;83.30
20337;DHT22;10326;53.660;10.200;2022-12-07T05:33:54;5.50;83.30
20337;DHT22;10326;53.660;10.200;2022-12-07T05:36:22;5.50;83.30
20337;DHT22;10326;53.660;10.200;2022-12-07T05:38:49;5.50;83.30
20337;DHT22;10326;53.660;10.200;2022-12-07T05:41:17;5.50;83.30
20337;DHT22;10326;53.660;10.200;2022-12-07T05:44:04;5.50;83.40
20337;DHT22;10326;53.660;10.200;2022-12-07T05:46:32;5.50;83.40
20337;DHT22;10326;53.660;10.200;2022-12-07T05:49:00;5.50;83.90
20337;DHT22;10326;53.660;10.200;2022-12-07T05:51:27;5.40;83.20
20337;DHT22;10326;53.660;10.200;2022-12-07T05:53:54;5.40;83.20
20337;DHT22;10326;53.660;10.200;2022-12-07T05:56:22;5.40;83.30
20337;DHT22;10326;53.660;10.200;2022-12-07T05:58:50;5.40;83.30
20337;DHT22;10326;53.660;10.200;2022-12-07T06:01:35;5.40;83.40
20337;DHT22;10326;53.660;10.200;2022-12-07T06:04:03;5.40;83.40
20337;DHT22;10326;53.660;10.200;2022-12-07T06:06:30;5.40;83.40
20337;DHT22;10326;53.660;10.200;2022-12-07T06:08:57;5.40;83.30
20337;DHT22;10326;53.660;10.200;2022-12-07T06:11:24;5.30;83.20
20337;DHT22;10326;53.660;10.200;2022-12-07T06:14:09;5.30;83.10
20337;DHT22;10326;53.660;10.200;2022-12-07T06:16:37;5.30;83.10
20337;DHT22;10326;53.660;10.200;2022-12-07T06:19:04;5.30;83.10
20337;DHT22;10326;53.660;10.200;2022-12-07T06:21:32;5.30;83.20
20337;DHT22;10326;53.660;10.200;2022-12-07T06:23:59;5.20;83.10
20337;DHT22;10326;53.660;10.200;2022-12-07T06:26:26;5.20;83.00
20337;DHT22;10326;53.660;10.200;2022-12-07T06:28:54;5.20;83.00
20337;DHT22;10326;53.660;10.200;2022-12-07T06:31:21;5.20;83.10
20337;DHT22;10326;53.660;10.200;2022-12-07T06:33:49;5.20;83.00
20337;DHT22;10326;53.660;10.200;2022-12-07T06:36:16;5.20;83.10
20337;DHT22;10326;53.660;10.200;2022-12-07T06:38:44;5.20;83.30
20337;DHT22;10326;53.660;10.200;2022-12-07T06:41:11;5.20;83.30
20337;DHT22;10326;53.660;10.200;2022-12-07T06:43:38;5.10;83.20
20337;DHT22;10326;53.660;10.200;2022-12-07T06:46:05;5.10;83.20
20337;DHT22;10326;53.660;10.200;2022-12-07T06:48:32;5.10;83.20
20337;DHT22;10326;53.660;10.200;2022-12-07T06:51:01;5.10;83.20
20337;DHT22;10326;53.660;10.200;2022-12-07T06:53:28;5.10;83.20
20337;DHT22;10326;53.660;10.200;2022-12-07T06:55:55;5.10;83.30
20337;DHT22;10326;53.660;10.200;2022-12-07T06:58:23;5.10;83.30
20337;DHT22;10326;53.660;10.200;2022-12-07T07:00:51;5.10;83.20
20337;DHT22;10326;53.660;10.200;2022-12-07T07:03:18;5.10;83.30
20337;DHT22;10326;53.660;10.200;2022-12-07T07:05:45;5.10;83.30
20337;DHT22;10326;53.660;10.200;2022-12-07T07:08:14;5.10;83.80
20337;DHT22;10326;53.660;10.200;2022-12-07T07:10:41;5.10;83.30
20337;DHT22;10326;53.660;10.200;2022-12-07T07:13:08;5.10;83.30
20337;DHT22;10326;53.660;10.200;2022-12-07T07:15:38;5.10;83.40
20337;DHT22;10326;53.660;10.200;2022-12-07T07:18:05;5.10;83.40
20337;DHT22;10326;53.660;10.200;2022-12-07T07:20:32;5.10;83.50
20337;DHT22;10326;53.660;10.200;2022-12-07T07:22:59;5.10;83.60
20337;DHT22;10326;53.660;10.200;2022-12-07T07:25:28;5.10;83.60
20337;DHT22;10326;53.660;10.200;2022-12-07T07:27:55;5.10;83.80
20337;DHT22;10326;53.660;10.200;2022-12-07T07:30:22;5.10;83.70
20337;DHT22;10326;53.660;10.200;2022-12-07T07:32:50;5.10;83.80
20337;DHT22;10326;53.660;10.200;2022-12-07T07:35:17;5.10;83.80
20337;DHT22;10326;53.660;10.200;2022-12-07T07:37:44;5.10;83.80
20337;DHT22;10326;53.660;10.200;2022-12-07T07:40:12;5.10;83.80
20337;DHT22;10326;53.660;10.200;2022-12-07T07:42:40;5.10;83.80
20337;DHT22;10326;53.660;10.200;2022-12-07T07:45:08;5.10;83.90
20337;DHT22;10326;53.660;10.200;2022-12-07T07:47:36;5.10;83.90
20337;DHT22;10326;53.660;10.200;2022-12-07T07:50:04;5.10;83.90
20337;DHT22;10326;53.660;10.200;2022-12-07T07:52:32;5.10;83.90
20337;DHT22;10326;53.660;10.200;2022-12-07T07:54:59;5.20;84.00
20337;DHT22;10326;53.660;10.200;2022-12-07T07:57:26;5.20;84.00
20337;DHT22;10326;53.660;10.200;2022-12-07T07:59:55;5.20;84.00
20337;DHT22;10326;53.660;10.200;2022-12-07T08:02:22;5.20;84.00
20337;DHT22;10326;53.660;10.200;2022-12-07T08:04:50;5.20;84.10
20337;DHT22;10326;53.660;10.200;2022-12-07T08:07:17;5.20;84.10
20337;DHT22;10326;53.660;10.200;2022-12-07T08:09:44;5.20;84.20
20337;DHT22;10326;53.660;10.200;2022-12-07T08:12:11;5.20;84.20
20337;DHT22;10326;53.660;10.200;2022-12-07T08:14:38;5.20;84.30
20337;DHT22;10326;53.660;10.200;2022-12-07T08:17:08;5.30;84.30
20337;DHT22;10326;53.660;10.200;2022-12-07T08:19:35;5.30;84.30
20337;DHT22;10326;53.660;10.200;2022-12-07T08:22:02;5.30;84.40
20337;DHT22;10326;53.660;10.200;2022-12-07T08:24:29;5.30;84.40
20337;DHT22;10326;53.660;10.200;2022-12-07T08:26:56;5.30;84.40
20337;DHT22;10326;53.660;10.200;2022-12-07T08:29:23;5.30;84.40
20337;DHT22;10326;53.660;10.200;2022-12-07T08:31:51;5.40;84.50
20337;DHT22;10326;53.660;10.200;2022-12-07T08:34:19;5.40;84.60
20337;DHT22;10326;53.660;10.200;2022-12-07T08:36:46;5.40;84.60
20337;DHT22;10326;53.660;10.200;2022-12-07T08:39:14;5.40;84.60
20337;DHT22;10326;53.660;10.200;2022-12-07T08:41:41;5.50;85.10
20337;DHT22;10326;53.660;10.200;2022-12-07T08:44:08;5.50;84.50
20337;DHT22;10326;53.660;10.200;2022-12-07T08:46:37;5.50;84.40
20337;DHT22;10326;53.660;10.200;2022-12-07T08:49:10;5.60;84.50
20337;DHT22;10326;53.660;10.200;2022-12-07T08:51:41;5.50;84.40
20337;DHT22;10326;53.660;10.200;2022-12-07T08:54:11;5.60;84.40
20337;DHT22;10326;53.660;10.200;2022-12-07T08:56:42;5.60;84.50
20337;DHT22;10326;53.660;10.200;2022-12-07T08:59:09;5.60;84.40
20337;DHT22;10326;53.660;10.200;2022-12-07T09:01:37;5.70;84.50
20337;DHT22;10326;53.660;10.200;2022-12-07T09:04:05;5.70;84.50
20337;DHT22;10326;53.660;10.200;2022-12-07T09:06:33;5.70;84.40
20337;DHT22;10326;53.660;10.200;2022-12-07T09:09:02;5.70;84.40
20337;DHT22;10326;53.660;10.200;2022-12-07T09:11:30;5.70;84.40
20337;DHT22;10326;53.660;10.200;2022-12-07T09:13:57;5.70;84.40
20337;DHT22;10326;53.660;10.200;2022-12-07T09:16:24;5.70;84.50
20337;DHT22;10326;53.660;10.200;2022-12-07T09:18:51;5.70;85.10
20337;DHT22;10326;53.660;10.200;2022-12-07T09:21:18;5.70;84.50
20337;DHT22;10326;53.660;10.200;2022-12-07T09:23:45;5.70;84.80
20337;DHT22;10326;53.660;10.200;2022-12-07T09:26:14;5.80;84.60
20337;DHT22;10326;53.660;10.200;2022-12-07T09:28:41;5.80;84.70
20337;DHT22;10326;53.660;10.200;2022-12-07T09:31:08;5.80;84.70
20337;DHT22;10326;53.660;10.200;2022-12-07T09:33:36;5.80;84.80
20337;DHT22;10326;53.660;10.200;2022-12-07T09:36:04;5.80;84.80
20337;DHT22;10326;53.660;10.200;2022-12-07T09:38:31;5.90;84.90
20337;DHT22;10326;53.660;10.200;2022-12-07T09:41:04;5.90;84.80
20337;DHT22;10326;53.660;10.200;2022-12-07T09:43:35;5.90;84.80
20337;DHT22;10326;53.660;10.200;2022-12-07T09:46:04;5.90;84.80
20337;DHT22;10326;53.660;10.200;2022-12-07T09:48:33;5.90;84.90
20337;DHT22;10326;53.660;10.200;2022-12-07T09:51:14;6.00;85.00
20337;DHT22;10326;53.660;10.200;2022-12-07T09:53:43;6.00;85.20
20337;DHT22;10326;53.660;10.200;2022-12-07T09:56:13;6.00;85.20
20337;DHT22;10326;53.660;10.200;2022-12-07T09:58:42;6.00;85.20
20337;DHT22;10326;53.660;10.200;2022-12-07T10:01:12;6.10;85.20
20337;DHT22;10326;53.660;10.200;2022-12-07T10:03:50;6.10;85.10
20337;DHT22;10326;53.660;10.200;2022-12-07T10:06:19;6.20;85.20
20337;DHT22;10326;53.660;10.200;2022-12-07T10:08:46;6.20;85.10
20337;DHT22;10326;53.660;10.200;2022-12-07T10:11:14;6.20;85.10
20337;DHT22;10326;53.660;10.200;2022-12-07T10:13:44;6.20;85.20
20337;DHT22;10326;53.660;10.200;2022-12-07T10:16:34;6.30;85.30
20337;DHT22;10326;53.660;10.200;2022-12-07T10:19:18;6.30;85.30
20337;DHT22;10326;53.660;10.200;2022-12-07T10:22:04;6.40;85.30
20337;DHT22;10326;53.660;10.200;2022-12-07T10:24:36;6.40;85.20
20337;DHT22;10326;53.660;10.200;2022-12-07T10:27:10;6.40;85.10
20337;DHT22;10326;53.660;10.200;2022-12-07T10:29:49;6.50;85.20
20337;DHT22;10326;53.660;10.200;2022-12-07T10:32:32;6.50;85.10
20337;DHT22;10326;53.660;10.200;2022-12-07T10:35:20;6.50;85.10
20337;DHT22;10326;53.660;10.200;2022-12-07T10:37:51;6.50;84.90
20337;DHT22;10326;53.660;10.200;2022-12-07T10:40:30;6.60;85.00
20337;DHT22;10326;53.660;10.200;2022-12-07T10:43:05;6.60;85.00
20337;DHT22;10326;53.660;10.200;2022-12-07T10:45:57;6.60;85.00
20337;DHT22;10326;53.660;10.200;2022-12-07T10:48:41;6.60;84.90
20337;DHT22;10326;53.660;10.200;2022-12-07T10:51:15;6.60;84.60
20337;DHT22;10326;53.660;10.200;2022-12-07T10:53:57;6.70;84.70
20337;DHT22;10326;53.660;10.200;2022-12-07T10:59:51;6.70;84.70
20337;DHT22;10326;53.660;10.200;2022-12-07T11:02:43;6.70;84.20
20337;DHT22;10326;53.660;10.200;2022-12-07T11:05:26;6.80;84.40
20337;DHT22;10326;53.660;10.200;2022-12-07T11:08:03;6.70;84.30
20337;DHT22;10326;53.660;10.200;2022-12-07T11:10:41;6.80;84.40
20337;DHT22;10326;53.660;10.200;2022-12-07T11:13:22;6.80;84.40
20337;DHT22;10326;53.660;10.200;2022-12-07T11:16:15;6.80;84.40
20337;DHT22;10326;53.660;10.200;2022-12-07T11:18:57;6.80;84.40
20337;DHT22;10326;53.660;10.200;2022-12-07T11:21:36;6.80;84.30
20337;DHT22;10326;53.660;10.200;2022-12-07T11:24:12;6.90;84.30
20337;DHT22;10326;53.660;10.200;2022-12-07T11:26:58;6.90;84.10
20337;DHT22;10326;53.660;10.200;2022-12-07T11:29:49;6.90;84.00
20337;DHT22;10326;53.660;10.200;2022-12-07T11:32:32;6.90;84.00
20337;DHT22;10326;53.660;10.200;2022-12-07T11:35:17;6.90;83.90
20337;DHT22;10326;53.660;10.200;2022-12-07T11:37:54;6.90;83.80
20337;DHT22;10326;53.660;10.200;2022-12-07T11:40:27;6.90;83.80
20337;DHT22;10326;53.660;10.200;2022-12-07T11:42:58;7.00;83.70
20337;DHT22;10326;53.660;10.200;2022-12-07T11:45:30;7.00;83.70
20337;DHT22;10326;53.660;10.200;2022-12-07T11:48:02;7.00;83.50
20337;DHT22;10326;53.660;10.200;2022-12-07T11:50:37;7.00;83.50
20337;DHT22;10326;53.660;10.200;2022-12-07T11:53:14;7.00;83.50
20337;DHT22;10326;53.660;10.200;2022-12-07T11:55:49;7.00;83.30
20337;DHT22;10326;53.660;10.200;2022-12-07T11:58:33;7.10;83.30
20337;DHT22;10326;53.660;10.200;2022-12-07T12:01:20;7.10;83.00
20337;DHT22;10326;53.660;10.200;2022-12-07T12:04:01;7.10;83.00
20337;DHT22;10326;53.660;10.200;2022-12-07T12:06:32;7.10;83.30
20337;DHT22;10326;53.660;10.200;2022-12-07T12:09:05;7.20;83.10
20337;DHT22;10326;53.660;10.200;2022-12-07T12:11:52;7.20;82.80
20337;DHT22;10326;53.660;10.200;2022-12-07T12:14:46;7.20;82.70
20337;DHT22;10326;53.660;10.200;2022-12-07T12:20:29;7.30;82.30
20337;DHT22;10326;53.660;10.200;2022-12-07T12:23:05;7.30;82.70
20337;DHT22;10326;53.660;10.200;2022-12-07T12:25:38;7.30;82.70
20337;DHT22;10326;53.660;10.200;2022-12-07T12:28:20;7.40;82.50
20337;DHT22;10326;53.660;10.200;2022-12-07T12:31:09;7.50;82.10
20337;DHT22;10326;53.660;10.200;2022-12-07T12:33:43;7.50;81.00
20337;DHT22;10326;53.660;10.200;2022-12-07T12:36:22;7.60;82.10
20337;DHT22;10326;53.660;10.200;2022-12-07T12:39:08;7.60;81.70
20337;DHT22;10326;53.660;10.200;2022-12-07T12:41:57;7.70;80.50
20337;DHT22;10326;53.660;10.200;2022-12-07T12:47:57;7.80;80.30
20337;DHT22;10326;53.660;10.200;2022-12-07T12:50:30;7.80;78.90
20337;DHT22;10326;53.660;10.200;2022-12-07T12:53:22;7.80;79.70
20337;DHT22;10326;53.660;10.200;2022-12-07T12:59:24;7.90;79.30
20337;DHT22;10326;53.660;10.200;2022-12-07T13:01:55;7.90;78.70
20337;DHT22;10326;53.660;10.200;2022-12-07T13:04:49;7.90;78.90
20337;DHT22;10326;53.660;10.200;2022-12-07T13:10:35;8.00;77.60
20337;DHT22;10326;53.660;10.200;2022-12-07T13:13:33;8.10;77.60
20337;DHT22;10326;53.660;10.200;2022-12-07T13:16:37;8.20;77.10
20337;DHT22;10326;53.660;10.200;2022-12-07T13:22:51;8.30;75.90
20337;DHT22;10326;53.660;10.200;2022-12-07T13:25:29;8.40;77.00
20337;DHT22;10326;53.660;10.200;2022-12-07T13:28:02;8.50;78.10
20337;DHT22;10326;53.660;10.200;2022-12-07T13:30:45;8.60;77.70
20337;DHT22;10326;53.660;10.200;2022-12-07T13:33:15;8.60;76.20
20337;DHT22;10326;53.660;10.200;2022-12-07T13:35:45;8.60;76.60
20337;DHT22;10326;53.660;10.200;2022-12-07T13:38:25;8.60;76.60
20337;DHT22;10326;53.660;10.200;2022-12-07T13:41:02;8.50;75.00
20337;DHT22;10326;53.660;10.200;2022-12-07T13:43:30;8.60;76.10
20337;DHT22;10326;53.660;10.200;2022-12-07T13:45:59;8.60;76.70
20337;DHT22;10326;53.660;10.200;2022-12-07T13:48:30;8.60;74.80
20337;DHT22;10326;53.660;10.200;2022-12-07T13:51:01;8.50;74.90
20337;DHT22;10326;53.660;10.200;2022-12-07T13:53:30;8.50;75.00
20337;DHT22;10326;53.660;10.200;2022-12-07T13:55:58;8.50;75.00
20337;DHT22;10326;53.660;10.200;2022-12-07T13:58:29;8.50;74.10
20337;DHT22;10326;53.660;10.200;2022-12-07T14:00:59;8.40;74.30
20337;DHT22;10326;53.660;10.200;2022-12-07T14:03:31;8.30;73.60
20337;DHT22;10326;53.660;10.200;2022-12-07T14:06:18;8.30;73.30
20337;DHT22;10326;53.660;10.200;2022-12-07T14:08:51;8.10;72.20
20337;DHT22;10326;53.660;10.200;2022-12-07T14:11:32;8.10;73.40
20337;DHT22;10326;53.660;10.200;2022-12-07T14:14:01;8.00;73.60
20337;DHT22;10326;53.660;10.200;2022-12-07T14:16:32;7.90;73.40
20337;DHT22;10326;53.660;10.200;2022-12-07T14:19:02;7.90;73.40
20337;DHT22;10326;53.660;10.200;2022-12-07T14:21:31;7.80;73.40
20337;DHT22;10326;53.660;10.200;2022-12-07T14:24:14;7.70;73.30
20337;DHT22;10326;53.660;10.200;2022-12-07T14:26:43;7.70;72.50
20337;DHT22;10326;53.660;10.200;2022-12-07T14:29:22;7.60;73.30
20337;DHT22;10326;53.660;10.200;2022-12-07T14:32:04;7.50;72.20
20337;DHT22;10326;53.660;10.200;2022-12-07T14:34:57;7.50;73.00
20337;DHT22;10326;53.660;10.200;2022-12-07T14:37:29;7.40;72.10
20337;DHT22;10326;53.660;10.200;2022-12-07T14:39:57;7.40;73.20
20337;DHT22;10326;53.660;10.200;2022-12-07T14:42:27;7.30;73.30
20337;DHT22;10326;53.660;10.200;2022-12-07T14:44:55;7.30;73.20
20337;DHT22;10326;53.660;10.200;2022-12-07T14:47:25;7.20;73.40
20337;DHT22;10326;53.660;10.200;2022-12-07T14:49:53;7.20;73.30
20337;DHT22;10326;53.660;10.200;2022-12-07T14:52:22;7.20;73.40
20337;DHT22;10326;53.660;10.200;2022-12-07T14:54:51;7.20;72.90
20337;DHT22;10326;53.660;10.200;2022-12-07T14:57:19;7.10;72.80
20337;DHT22;10326;53.660;10.200;2022-12-07T14:59:46;7.10;72.80
20337;DHT22;10326;53.660;10.200;2022-12-07T15:02:15;7.10;72.80
20337;DHT22;10326;53.660;10.200;2022-12-07T15:04:44;7.00;72.60
20337;DHT22;10326;53.660;10.200;2022-12-07T15:07:15;7.00;72.60
20337;DHT22;10326;53.660;10.200;2022-12-07T15:09:45;7.00;72.40
20337;DHT22;10326;53.660;10.200;2022-12-07T15:12:12;6.90;72.40
20337;DHT22;10326;53.660;10.200;2022-12-07T15:14:39;6.90;72.40
20337;DHT22;10326;53.660;10.200;2022-12-07T15:17:09;6.80;72.50
20337;DHT22;10326;53.660;10.200;2022-12-07T15:19:38;6.80;72.20
20337;DHT22;10326;53.660;10.200;2022-12-07T15:22:07;6.80;72.40
20337;DHT22;10326;53.660;10.200;2022-12-07T15:24:36;6.70;72.10
20337;DHT22;10326;53.660;10.200;2022-12-07T15:27:04;6.70;72.30
20337;DHT22;10326;53.660;10.200;2022-12-07T15:29:31;6.70;72.30
20337;DHT22;10326;53.660;10.200;2022-12-07T15:31:58;6.60;72.00
20337;DHT22;10326;53.660;10.200;2022-12-07T15:34:27;6.60;72.00
20337;DHT22;10326;53.660;10.200;2022-12-07T15:36:56;6.50;71.90
20337;DHT22;10326;53.660;10.200;2022-12-07T15:39:25;6.40;72.10
20337;DHT22;10326;53.660;10.200;2022-12-07T15:41:52;6.40;72.10
20337;DHT22;10326;53.660;10.200;2022-12-07T15:44:19;6.40;72.20
20337;DHT22;10326;53.660;10.200;2022-12-07T15:47:04;6.30;72.10
20337;DHT22;10326;53.660;10.200;2022-12-07T15:49:31;6.30;72.30
20337;DHT22;10326;53.660;10.200;2022-12-07T15:51:58;6.30;72.00
20337;DHT22;10326;53.660;10.200;2022-12-07T15:54:28;6.20;72.00
20337;DHT22;10326;53.660;10.200;2022-12-07T15:56:56;6.20;72.10
20337;DHT22;10326;53.660;10.200;2022-12-07T15:59:25;6.20;72.20
20337;DHT22;10326;53.660;10.200;2022-12-07T16:01:53;6.20;72.40
20337;DHT22;10326;53.660;10.200;2022-12-07T16:04:20;6.10;72.40
20337;DHT22;10326;53.660;10.200;2022-12-07T16:06:48;6.10;72.30
20337;DHT22;10326;53.660;10.200;2022-12-07T16:09:16;6.10;72.20
20337;DHT22;10326;53.660;10.200;2022-12-07T16:11:45;6.10;72.50
20337;DHT22;10326;53.660;10.200;2022-12-07T16:14:12;6.00;71.90
20337;DHT22;10326;53.660;10.200;2022-12-07T16:16:39;6.00;72.00
20337;DHT22;10326;53.660;10.200;2022-12-07T16:19:07;6.00;72.10